Time;durP1;ratioP1;P1;durP2;ratioP2;P2;SDS_P1;SDS_P2;PMS_P1;PMS_P2;Temp;Humidity;BMP_temperature;BMP_pressure;BME280_temperature;BME280_humidity;BME280_pressure;Samples;Min_cycle;Max_cycle;Signal;HPM_P1;HPM_P2
2022/08/03 00:00:58;;;;;;;7.97;2.85;;;;;;;;;;5122327;28;20032;-83
2022/08/03 00:03:24;;;;;;;9.05;2.65;;;;;;;;;;5122599;28;20031;-83
2022/08/03 00:05:49;;;;;;;9.40;2.70;;;;;;;;;;5115877;28;20197;-83
2022/08/03 00:08:14;;;;;;;7.63;2.75;;;;;;;;;;5122201;28;20355;-82
2022/08/03 00:10:40;;;;;;;7.80;3.00;;;;;;;;;;5122241;28;20035;-81
2022/08/03 00:13:05;;;;;;;5.43;2.60;;;;;;;;;;5122404;28;20197;-83
2022/08/03 00:15:30;;;;;;;6.40;2.50;;;;;;;;;;5121819;28;20073;-82
2022/08/03 00:17:56;;;;;;;8.70;2.60;;;;;;;;;;5121685;28;20087;-83
2022/08/03 00:20:21;;;;;;;5.05;2.47;;;;;;;;;;5097560;28;20016;-83
2022/08/03 00:22:46;;;;;;;5.82;2.72;;;;;;;;;;5119865;28;20095;-85
2022/08/03 00:25:12;;;;;;;7.35;2.78;;;;;;;;;;5121813;28;20012;-83
2022/08/03 00:27:37;;;;;;;10.55;2.80;;;;;;;;;;5122237;28;20185;-85
2022/08/03 00:30:03;;;;;;;5.00;2.67;;;;;;;;;;5121560;28;20059;-82
2022/08/03 00:32:28;;;;;;;6.57;2.90;;;;;;;;;;5122053;28;20042;-83
2022/08/03 00:34:54;;;;;;;10.02;2.70;;;;;;;;;;5092022;28;20097;-82
2022/08/03 00:37:19;;;;;;;4.88;2.60;;;;;;;;;;5121937;28;20043;-83
2022/08/03 00:39:46;;;;;;;9.35;3.00;;;;;;;;;;5121621;28;20031;-81
2022/08/03 00:42:11;;;;;;;6.28;2.72;;;;;;;;;;5121571;28;20019;-84
2022/08/03 00:44:43;;;;;;;7.53;2.70;;;;;;;;;;5121529;28;20046;-84
2022/08/03 00:47:10;;;;;;;6.57;2.90;;;;;;;;;;5121737;28;20022;-83
2022/08/03 00:49:39;;;;;;;5.18;2.78;;;;;;;;;;5121732;28;20062;-84
2022/08/03 00:52:07;;;;;;;6.68;2.90;;;;;;;;;;5119740;28;20106;-83
2022/08/03 00:54:33;;;;;;;6.53;2.58;;;;;;;;;;5116595;28;20209;-83
2022/08/03 00:56:58;;;;;;;10.15;3.47;;;;;;;;;;5121785;28;20053;-82
2022/08/03 00:59:23;;;;;;;7.72;2.67;;;;;;;;;;5120597;28;20015;-82
2022/08/03 01:01:49;;;;;;;5.90;2.95;;;;;;;;;;5115637;28;20038;-84
2022/08/03 01:04:14;;;;;;;4.97;2.70;;;;;;;;;;5121509;28;20016;-82
2022/08/03 01:06:48;;;;;;;7.60;2.88;;;;;;;;;;5115073;28;20027;-84
2022/08/03 01:09:44;;;;;;;6.82;2.70;;;;;;;;;;5121113;28;20099;-83
2022/08/03 01:12:31;;;;;;;5.93;2.42;;;;;;;;;;5112773;28;20031;-82
2022/08/03 01:15:35;;;;;;;5.88;2.80;;;;;;;;;;5119131;28;20015;-83
2022/08/03 01:18:30;;;;;;;5.35;2.80;;;;;;;;;;5121116;28;20320;-83
2022/08/03 01:20:58;;;;;;;6.55;2.70;;;;;;;;;;5113954;28;20039;-84
2022/08/03 01:23:45;;;;;;;5.63;2.40;;;;;;;;;;5120533;28;20022;-84
2022/08/03 01:26:38;;;;;;;5.80;2.72;;;;;;;;;;5117028;28;20036;-84
2022/08/03 01:29:37;;;;;;;4.07;2.60;;;;;;;;;;5091674;28;20423;-84
2022/08/03 01:32:09;;;;;;;5.35;2.60;;;;;;;;;;5113990;28;20035;-82
2022/08/03 01:34:42;;;;;;;6.28;2.42;;;;;;;;;;5121527;28;20296;-84
2022/08/03 01:37:11;;;;;;;6.10;2.70;;;;;;;;;;5120861;28;20020;-83
2022/08/03 01:39:39;;;;;;;5.50;2.47;;;;;;;;;;5121009;28;20027;-83
2022/08/03 01:42:07;;;;;;;7.50;2.50;;;;;;;;;;5118758;28;20326;-82
2022/08/03 01:44:40;;;;;;;7.03;2.60;;;;;;;;;;5120652;28;20019;-80
2022/08/03 01:47:07;;;;;;;4.68;2.30;;;;;;;;;;5121109;28;20019;-84
2022/08/03 01:49:37;;;;;;;5.28;2.30;;;;;;;;;;5120881;28;20202;-83
2022/08/03 01:52:03;;;;;;;7.78;2.80;;;;;;;;;;5120523;28;20035;-84
2022/08/03 01:54:31;;;;;;;8.30;2.40;;;;;;;;;;5120505;28;20320;-84
2022/08/03 01:56:58;;;;;;;7.38;2.40;;;;;;;;;;5120508;28;20028;-83
2022/08/03 01:59:25;;;;;;;9.80;2.80;;;;;;;;;;5114487;28;20019;-83
2022/08/03 02:01:51;;;;;;;8.70;2.65;;;;;;;;;;5115022;28;20316;-82
2022/08/03 02:04:18;;;;;;;8.73;2.42;;;;;;;;;;5121226;28;20062;-82
2022/08/03 02:06:46;;;;;;;7.00;2.40;;;;;;;;;;5120697;28;20024;-83
2022/08/03 02:09:18;;;;;;;5.22;2.28;;;;;;;;;;5113746;28;20031;-83
2022/08/03 02:11:45;;;;;;;7.20;2.47;;;;;;;;;;5120603;28;20032;-83
2022/08/03 02:14:13;;;;;;;6.32;2.30;;;;;;;;;;5120475;28;20031;-83
2022/08/03 02:16:39;;;;;;;6.90;2.60;;;;;;;;;;5120768;28;20024;-81
2022/08/03 02:19:06;;;;;;;5.95;2.45;;;;;;;;;;5118787;28;20253;-83
2022/08/03 02:21:34;;;;;;;5.30;2.10;;;;;;;;;;5102241;28;20208;-83
2022/08/03 02:24:00;;;;;;;5.63;2.40;;;;;;;;;;5111070;28;20077;-82
2022/08/03 02:26:28;;;;;;;5.10;2.30;;;;;;;;;;5120794;28;20028;-83
2022/08/03 02:28:56;;;;;;;5.55;2.30;;;;;;;;;;5115722;28;20052;-82
2022/08/03 02:31:27;;;;;;;6.18;2.20;;;;;;;;;;5115638;28;20027;-81
2022/08/03 02:33:57;;;;;;;7.03;2.53;;;;;;;;;;5114479;28;20034;-84
2022/08/03 02:36:27;;;;;;;6.10;2.30;;;;;;;;;;5119899;28;20505;-81
2022/08/03 02:38:54;;;;;;;5.20;2.30;;;;;;;;;;5114814;28;20023;-84
2022/08/03 02:41:24;;;;;;;5.05;2.17;;;;;;;;;;5122064;28;20023;-82
2022/08/03 02:43:53;;;;;;;5.90;2.17;;;;;;;;;;5122988;28;20076;-82
2022/08/03 02:46:21;;;;;;;5.43;2.10;;;;;;;;;;5119145;28;20252;-83
2022/08/03 02:48:48;;;;;;;6.90;2.35;;;;;;;;;;5123880;28;20043;-82
2022/08/03 02:51:17;;;;;;;8.40;2.20;;;;;;;;;;5124051;28;20111;-84
2022/08/03 02:53:44;;;;;;;4.88;2.03;;;;;;;;;;5123460;28;20043;-83
2022/08/03 02:56:11;;;;;;;5.53;2.50;;;;;;;;;;5123707;28;20296;-84
2022/08/03 02:58:39;;;;;;;5.65;2.00;;;;;;;;;;5123717;28;20027;-81
2022/08/03 03:01:05;;;;;;;4.50;2.20;;;;;;;;;;5117407;28;20095;-84
2022/08/03 03:03:32;;;;;;;6.80;2.10;;;;;;;;;;5105630;28;20023;-79
2022/08/03 03:05:58;;;;;;;3.53;1.85;;;;;;;;;;5123396;28;20087;-85
2022/08/03 03:08:24;;;;;;;6.50;2.13;;;;;;;;;;5110614;28;20015;-83
2022/08/03 03:10:50;;;;;;;9.10;2.10;;;;;;;;;;5123628;28;20130;-83
2022/08/03 03:13:18;;;;;;;5.82;2.10;;;;;;;;;;5123714;28;20020;-83
2022/08/03 03:15:44;;;;;;;5.80;2.20;;;;;;;;;;5117172;28;20034;-84
2022/08/03 03:18:10;;;;;;;5.55;2.35;;;;;;;;;;5123346;28;20072;-84
2022/08/03 03:20:37;;;;;;;4.65;2.08;;;;;;;;;;5123225;28;20163;-83
2022/08/03 03:23:04;;;;;;;5.03;2.17;;;;;;;;;;5123491;28;20078;-84
2022/08/03 03:25:31;;;;;;;6.05;1.95;;;;;;;;;;5123203;28;20079;-83
2022/08/03 03:27:58;;;;;;;4.65;2.00;;;;;;;;;;5122997;28;20042;-84
2022/08/03 03:30:24;;;;;;;6.80;2.13;;;;;;;;;;5117842;28;20213;-84
2022/08/03 03:32:50;;;;;;;4.68;2.10;;;;;;;;;;5122422;28;20016;-84
2022/08/03 03:35:16;;;;;;;8.32;2.30;;;;;;;;;;5122662;28;20011;-84
2022/08/03 03:37:41;;;;;;;4.35;2.08;;;;;;;;;;5122970;28;20047;-85
2022/08/03 03:40:07;;;;;;;7.53;2.20;;;;;;;;;;5122827;28;20110;-84
2022/08/03 03:42:33;;;;;;;4.18;2.10;;;;;;;;;;5122717;28;20015;-85
2022/08/03 03:45:02;;;;;;;4.93;2.10;;;;;;;;;;5123034;28;20285;-83
2022/08/03 03:47:28;;;;;;;6.07;2.22;;;;;;;;;;5122975;28;20203;-84
2022/08/03 03:49:55;;;;;;;5.50;1.98;;;;;;;;;;5122447;28;20027;-85
2022/08/03 03:52:20;;;;;;;6.05;2.00;;;;;;;;;;5118620;28;20091;-84
2022/08/03 03:54:46;;;;;;;8.00;2.45;;;;;;;;;;5111595;28;20031;-84
2022/08/03 03:57:11;;;;;;;7.97;2.30;;;;;;;;;;5091180;28;20030;-85
2022/08/03 03:59:41;;;;;;;10.30;2.50;;;;;;;;;;5123091;28;20055;-84
2022/08/03 04:02:07;;;;;;;7.82;2.17;;;;;;;;;;5122611;28;20316;-84
2022/08/03 04:13:02;;;;;;;5.47;1.90;;;;;;;;;;5122578;28;20053;-84
2022/08/03 04:15:30;;;;;;;4.43;2.05;;;;;;;;;;5103935;28;20061;-84
2022/08/03 04:17:57;;;;;;;5.60;2.00;;;;;;;;;;5122434;28;20188;-84
2022/08/03 04:20:27;;;;;;;8.63;2.30;;;;;;;;;;5121954;28;20039;-84
2022/08/03 04:22:53;;;;;;;10.90;2.45;;;;;;;;;;5122254;28;20024;-83
2022/08/03 04:25:22;;;;;;;5.47;2.00;;;;;;;;;;5121731;28;20027;-80
2022/08/03 04:27:51;;;;;;;8.18;2.00;;;;;;;;;;5122001;28;20024;-85
2022/08/03 04:30:17;;;;;;;7.75;1.85;;;;;;;;;;5117778;28;20028;-84
2022/08/03 04:32:49;;;;;;;7.93;2.25;;;;;;;;;;5119987;28;20072;-81
2022/08/03 04:35:15;;;;;;;7.40;2.08;;;;;;;;;;5121570;28;20015;-83
2022/08/03 04:37:42;;;;;;;3.47;2.00;;;;;;;;;;5122150;28;20323;-83
2022/08/03 04:40:18;;;;;;;4.82;1.88;;;;;;;;;;5121472;28;20031;-83
2022/08/03 04:42:44;;;;;;;5.57;1.95;;;;;;;;;;5121844;28;20042;-85
2022/08/03 04:45:15;;;;;;;6.18;2.03;;;;;;;;;;5121524;28;20053;-85
2022/08/03 04:47:41;;;;;;;5.82;2.33;;;;;;;;;;5122069;28;20043;-82
2022/08/03 04:50:07;;;;;;;7.35;1.95;;;;;;;;;;5121716;28;20030;-84
2022/08/03 04:52:33;;;;;;;6.15;2.00;;;;;;;;;;5121566;28;20039;-85
2022/08/03 04:54:59;;;;;;;6.53;2.40;;;;;;;;;;5120523;28;20102;-84
2022/08/03 04:57:24;;;;;;;7.43;2.08;;;;;;;;;;5121300;28;20065;-84
2022/08/03 04:59:55;;;;;;;9.02;2.50;;;;;;;;;;5121452;28;20019;-85
2022/08/03 05:02:21;;;;;;;7.82;2.28;;;;;;;;;;5121565;28;20142;-85
2022/08/03 05:04:47;;;;;;;7.10;2.00;;;;;;;;;;5117527;28;20346;-85
2022/08/03 05:07:12;;;;;;;5.40;2.20;;;;;;;;;;5112187;28;20032;-84
2022/08/03 05:09:38;;;;;;;5.40;2.30;;;;;;;;;;5121233;28;20327;-83
2022/08/03 05:12:05;;;;;;;4.35;2.20;;;;;;;;;;5121138;28;20036;-83
2022/08/03 05:14:30;;;;;;;7.10;2.10;;;;;;;;;;5121198;28;20027;-85
2022/08/03 05:16:55;;;;;;;4.57;2.05;;;;;;;;;;5121492;28;20193;-85
2022/08/03 05:19:21;;;;;;;6.95;2.28;;;;;;;;;;5117608;28;20019;-84
2022/08/03 05:21:46;;;;;;;6.82;2.22;;;;;;;;;;5121262;28;20204;-84
2022/08/03 05:24:11;;;;;;;12.30;2.50;;;;;;;;;;5121327;28;20029;-86
2022/08/03 05:26:37;;;;;;;10.05;2.20;;;;;;;;;;5115432;28;20040;-85
2022/08/03 05:29:03;;;;;;;15.48;3.28;;;;;;;;;;5121341;28;20030;-87
2022/08/03 05:31:29;;;;;;;6.45;2.67;;;;;;;;;;5114690;28;20020;-82
2022/08/03 05:33:56;;;;;;;7.78;2.70;;;;;;;;;;5120641;28;20288;-86
2022/08/03 05:36:21;;;;;;;9.98;2.63;;;;;;;;;;5113730;28;20212;-87
2022/08/03 05:38:47;;;;;;;6.95;2.60;;;;;;;;;;5121134;28;20030;-86
2022/08/03 05:41:12;;;;;;;9.63;2.60;;;;;;;;;;5121306;28;20231;-88
2022/08/03 05:43:37;;;;;;;7.47;2.72;;;;;;;;;;5120779;28;20023;-85
2022/08/03 05:46:03;;;;;;;8.45;2.65;;;;;;;;;;5121456;28;20046;-86
2022/08/03 05:48:28;;;;;;;9.27;2.63;;;;;;;;;;5120772;28;20090;-86
2022/08/03 05:50:53;;;;;;;9.85;2.50;;;;;;;;;;5120506;28;20099;-84
2022/08/03 05:53:19;;;;;;;14.05;3.05;;;;;;;;;;5099050;28;20047;-85
2022/08/03 05:55:44;;;;;;;11.43;2.90;;;;;;;;;;5096653;28;20058;-85
2022/08/03 05:58:10;;;;;;;16.10;2.90;;;;;;;;;;5097992;28;20206;-84
2022/08/03 06:00:35;;;;;;;11.85;3.03;;;;;;;;;;5100800;28;20028;-84
2022/08/03 06:03:01;;;;;;;9.27;2.75;;;;;;;;;;5100200;28;20028;-83
2022/08/03 06:05:27;;;;;;;12.43;3.22;;;;;;;;;;5091596;28;20244;-82
2022/08/03 06:07:52;;;;;;;19.77;3.28;;;;;;;;;;5093816;28;20035;-80
2022/08/03 06:10:19;;;;;;;12.38;2.90;;;;;;;;;;5099868;28;20040;-85
2022/08/03 06:12:46;;;;;;;10.05;2.80;;;;;;;;;;5100693;28;20208;-82
2022/08/03 06:15:12;;;;;;;8.38;3.10;;;;;;;;;;5089359;28;20020;-82
2022/08/03 06:17:46;;;;;;;9.88;2.90;;;;;;;;;;5104193;28;20249;-84
2022/08/03 06:20:11;;;;;;;8.43;3.17;;;;;;;;;;5097433;28;20043;-85
2022/08/03 06:22:36;;;;;;;8.32;2.72;;;;;;;;;;5104002;28;20083;-85
2022/08/03 06:25:02;;;;;;;10.40;2.83;;;;;;;;;;5097306;28;20019;-84
2022/08/03 06:27:27;;;;;;;8.40;3.10;;;;;;;;;;5104444;28;20016;-83
2022/08/03 06:29:53;;;;;;;8.38;2.63;;;;;;;;;;5104481;28;20410;-81
2022/08/03 06:32:21;;;;;;;13.80;2.85;;;;;;;;;;5103910;28;20028;-83
2022/08/03 06:34:47;;;;;;;5.97;2.75;;;;;;;;;;5103889;28;20031;-84
2022/08/03 06:37:13;;;;;;;5.20;2.90;;;;;;;;;;5101847;28;20020;-84
2022/08/03 06:39:38;;;;;;;6.47;2.75;;;;;;;;;;5092782;28;20044;-81
2022/08/03 06:42:03;;;;;;;7.50;2.60;;;;;;;;;;5102609;28;20274;-85
2022/08/03 06:44:29;;;;;;;6.22;3.20;;;;;;;;;;5103618;28;20201;-85
2022/08/03 06:46:54;;;;;;;6.97;3.00;;;;;;;;;;5104075;28;20320;-85
2022/08/03 06:49:20;;;;;;;8.30;3.08;;;;;;;;;;5096464;28;20055;-84
2022/08/03 06:51:45;;;;;;;5.70;2.65;;;;;;;;;;5106115;28;20074;-84
2022/08/03 06:54:11;;;;;;;8.23;3.05;;;;;;;;;;5123524;28;20023;-84
2022/08/03 06:56:36;;;;;;;8.20;2.65;;;;;;;;;;5123845;28;20023;-85
2022/08/03 06:59:02;;;;;;;8.32;2.58;;;;;;;;;;5124068;28;20034;-83
2022/08/03 07:01:27;;;;;;;5.93;2.67;;;;;;;;;;5124060;28;20086;-82
2022/08/03 07:03:53;;;;;;;6.72;2.67;;;;;;;;;;5123430;28;20023;-85
2022/08/03 07:06:19;;;;;;;9.55;3.10;;;;;;;;;;5114898;28;20111;-84
2022/08/03 07:08:44;;;;;;;12.70;3.35;;;;;;;;;;5119754;28;20193;-82
2022/08/03 07:11:09;;;;;;;6.85;2.80;;;;;;;;;;5123596;28;20028;-85
2022/08/03 07:13:35;;;;;;;8.60;2.78;;;;;;;;;;5121981;28;20019;-84
2022/08/03 07:16:00;;;;;;;8.45;2.95;;;;;;;;;;5123193;28;20365;-84
2022/08/03 07:18:26;;;;;;;7.50;2.72;;;;;;;;;;5122008;28;20019;-84
2022/08/03 07:20:51;;;;;;;9.20;2.50;;;;;;;;;;5117795;28;20091;-85
2022/08/03 07:23:16;;;;;;;6.97;2.58;;;;;;;;;;5117922;28;20185;-84
2022/08/03 07:25:42;;;;;;;5.82;2.60;;;;;;;;;;5122986;28;20116;-84
2022/08/03 07:28:07;;;;;;;9.57;2.70;;;;;;;;;;5122469;28;20019;-85
2022/08/03 07:30:34;;;;;;;6.40;3.20;;;;;;;;;;5123339;28;20092;-84
2022/08/03 07:32:59;;;;;;;7.07;2.40;;;;;;;;;;5122861;28;20035;-84
2022/08/03 07:35:25;;;;;;;7.45;2.50;;;;;;;;;;5123121;28;20201;-82
2022/08/03 07:37:50;;;;;;;4.78;2.65;;;;;;;;;;5123137;28;20027;-85
2022/08/03 07:40:16;;;;;;;5.32;2.40;;;;;;;;;;5122674;28;20078;-84
2022/08/03 07:42:41;;;;;;;4.50;2.40;;;;;;;;;;5104926;28;20024;-87
2022/08/03 07:45:08;;;;;;;7.15;2.65;;;;;;;;;;5123041;28;20043;-83
2022/08/03 07:47:33;;;;;;;9.98;2.67;;;;;;;;;;5122492;28;20023;-84
2022/08/03 07:49:59;;;;;;;11.32;2.90;;;;;;;;;;5123025;28;20083;-83
2022/08/03 07:55:09;;;;;;;6.45;2.28;;;;;;;;;;5115993;28;20027;-85
2022/08/03 07:57:35;;;;;;;10.98;2.70;;;;;;;;;;5122933;28;20011;-86
2022/08/03 08:00:01;;;;;;;7.68;2.60;;;;;;;;;;5122850;28;20357;-85
2022/08/03 08:02:26;;;;;;;8.20;2.63;;;;;;;;;;5122745;28;20024;-83
2022/08/03 08:04:52;;;;;;;10.07;2.83;;;;;;;;;;5118545;28;20020;-85
2022/08/03 08:07:17;;;;;;;9.43;2.90;;;;;;;;;;5114460;28;20039;-85
2022/08/03 08:09:43;;;;;;;6.65;2.63;;;;;;;;;;5126648;28;20016;-84
2022/08/03 08:12:10;;;;;;;10.43;2.60;;;;;;;;;;5122689;28;20019;-85
2022/08/03 08:14:35;;;;;;;6.60;2.60;;;;;;;;;;5122077;28;20023;-83
2022/08/03 08:17:01;;;;;;;8.10;2.50;;;;;;;;;;5115724;28;20027;-84
2022/08/03 08:19:26;;;;;;;8.13;2.80;;;;;;;;;;5122552;28;20019;-81
2022/08/03 08:21:52;;;;;;;7.70;2.85;;;;;;;;;;5122300;28;20185;-84
2022/08/03 08:24:17;;;;;;;7.68;2.67;;;;;;;;;;5121951;28;20015;-82
2022/08/03 08:26:43;;;;;;;8.63;2.58;;;;;;;;;;5121894;28;20246;-81
2022/08/03 08:29:08;;;;;;;6.93;2.40;;;;;;;;;;5122287;28;20457;-87
2022/08/03 08:31:33;;;;;;;6.57;2.33;;;;;;;;;;5121557;28;20024;-84
2022/08/03 08:34:04;;;;;;;5.50;2.50;;;;;;;;;;5122182;28;20020;-83
2022/08/03 08:36:30;;;;;;;8.02;2.30;;;;;;;;;;5122285;28;20067;-83
2022/08/03 08:38:55;;;;;;;9.98;2.60;;;;;;;;;;5121208;28;20200;-84
2022/08/03 08:41:20;;;;;;;7.28;2.53;;;;;;;;;;5121472;28;20039;-81
2022/08/03 08:43:46;;;;;;;9.50;2.35;;;;;;;;;;5121548;28;20223;-83
2022/08/03 08:46:13;;;;;;;9.18;2.75;;;;;;;;;;5121462;28;20040;-84
2022/08/03 08:48:43;;;;;;;7.05;2.50;;;;;;;;;;5121890;28;20023;-80
2022/08/03 08:51:10;;;;;;;6.28;2.25;;;;;;;;;;5121727;28;20031;-81
2022/08/03 08:53:37;;;;;;;9.23;2.70;;;;;;;;;;5121201;28;20308;-84
2022/08/03 08:56:04;;;;;;;9.15;2.45;;;;;;;;;;5103149;28;20031;-80
2022/08/03 08:58:40;;;;;;;6.97;2.80;;;;;;;;;;5121414;28;20031;-80
2022/08/03 09:01:05;;;;;;;9.80;2.50;;;;;;;;;;5121210;28;20019;-84
2022/08/03 09:03:33;;;;;;;16.00;2.83;;;;;;;;;;5121700;28;20087;-85
2022/08/03 09:05:59;;;;;;;7.78;2.60;;;;;;;;;;5114639;28;20035;-81
2022/08/03 09:08:25;;;;;;;9.70;2.60;;;;;;;;;;5108848;28;20083;-86
2022/08/03 09:10:50;;;;;;;11.00;2.22;;;;;;;;;;5120834;28;20072;-85
2022/08/03 09:13:16;;;;;;;9.77;2.30;;;;;;;;;;5121438;28;20087;-86
2022/08/03 09:15:41;;;;;;;10.07;2.25;;;;;;;;;;5103082;28;20253;-84
2022/08/03 09:18:08;;;;;;;6.35;2.22;;;;;;;;;;5121289;28;20042;-82
2022/08/03 09:20:35;;;;;;;5.57;2.10;;;;;;;;;;5121282;28;20020;-82
2022/08/03 09:23:09;;;;;;;4.68;1.90;;;;;;;;;;5120854;28;20023;-84
2022/08/03 09:25:40;;;;;;;10.32;2.40;;;;;;;;;;5121464;28;20250;-83
2022/08/03 09:28:17;;;;;;;11.80;2.20;;;;;;;;;;5121347;28;20095;-85
2022/08/03 09:31:01;;;;;;;4.53;2.03;;;;;;;;;;5108896;28;20086;-80
2022/08/03 09:33:27;;;;;;;6.38;2.17;;;;;;;;;;5114596;28;20035;-85
2022/08/03 09:35:55;;;;;;;10.00;2.20;;;;;;;;;;5120958;28;20030;-84
2022/08/03 09:38:24;;;;;;;11.50;2.25;;;;;;;;;;5120918;28;20073;-86
2022/08/03 09:40:51;;;;;;;5.78;2.50;;;;;;;;;;5120871;28;20023;-87
2022/08/03 09:43:16;;;;;;;6.97;2.40;;;;;;;;;;5121030;28;20027;-88
2022/08/03 09:45:43;;;;;;;7.18;2.10;;;;;;;;;;5120904;28;20046;-86
2022/08/03 09:48:21;;;;;;;5.95;1.90;;;;;;;;;;5121026;28;20052;-84
2022/08/03 09:50:54;;;;;;;6.68;2.00;;;;;;;;;;5121502;28;20125;-84
2022/08/03 09:53:21;;;;;;;11.07;2.10;;;;;;;;;;5125088;28;20043;-86
2022/08/03 09:56:01;;;;;;;5.72;2.10;;;;;;;;;;5106709;28;20019;-84
2022/08/03 09:58:30;;;;;;;7.40;2.47;;;;;;;;;;5106565;28;20189;-84
2022/08/03 10:01:02;;;;;;;4.88;2.00;;;;;;;;;;5124707;28;20039;-87
2022/08/03 10:03:30;;;;;;;7.75;2.33;;;;;;;;;;5125239;28;20196;-85
2022/08/03 10:05:57;;;;;;;8.88;2.60;;;;;;;;;;5116877;28;20020;-86
2022/08/03 10:08:23;;;;;;;9.77;1.98;;;;;;;;;;5124468;28;20923;-87
2022/08/03 10:10:52;;;;;;;7.35;2.30;;;;;;;;;;5124619;28;20039;-87
2022/08/03 10:13:19;;;;;;;7.85;2.10;;;;;;;;;;5123641;28;20023;-86
2022/08/03 10:15:45;;;;;;;4.40;1.70;;;;;;;;;;5124883;28;20026;-82
2022/08/03 10:18:11;;;;;;;5.47;1.98;;;;;;;;;;5122182;28;20046;-85
2022/08/03 10:20:44;;;;;;;6.57;2.00;;;;;;;;;;5124765;28;20081;-84
2022/08/03 10:23:10;;;;;;;6.32;1.88;;;;;;;;;;5123997;28;20051;-82
2022/08/03 10:25:37;;;;;;;7.05;1.83;;;;;;;;;;5124103;28;20023;-83
2022/08/03 10:28:04;;;;;;;5.65;1.70;;;;;;;;;;5124717;28;20032;-87
2022/08/03 10:30:31;;;;;;;5.05;1.90;;;;;;;;;;5124083;28;20027;-86
2022/08/03 10:33:13;;;;;;;6.38;1.98;;;;;;;;;;5124614;28;20050;-87
2022/08/03 10:35:41;;;;;;;6.32;1.80;;;;;;;;;;5124387;28;20283;-84
2022/08/03 10:38:18;;;;;;;5.53;2.00;;;;;;;;;;5123916;28;20027;-85
2022/08/03 10:40:44;;;;;;;8.10;1.80;;;;;;;;;;5112577;28;20023;-87
2022/08/03 10:43:26;;;;;;;6.65;2.00;;;;;;;;;;5124179;28;20369;-85
2022/08/03 10:45:52;;;;;;;4.15;1.70;;;;;;;;;;5113983;28;20099;-83
2022/08/03 10:48:18;;;;;;;4.85;1.70;;;;;;;;;;5124119;28;20032;-80
2022/08/03 10:50:44;;;;;;;4.50;1.50;;;;;;;;;;5123641;28;20028;-87
2022/08/03 10:53:10;;;;;;;3.38;1.50;;;;;;;;;;5123545;28;20351;-85
2022/08/03 10:58:37;;;;;;;3.70;1.70;;;;;;;;;;5124212;28;20058;-87
2022/08/03 11:01:08;;;;;;;4.47;1.90;;;;;;;;;;5123845;28;20041;-80
2022/08/03 11:03:53;;;;;;;4.35;1.70;;;;;;;;;;5115928;28;20138;-87
2022/08/03 11:06:24;;;;;;;4.78;1.70;;;;;;;;;;5113941;28;20238;-88
2022/08/03 11:09:08;;;;;;;6.53;1.90;;;;;;;;;;5123871;28;20028;-84
2022/08/03 11:11:33;;;;;;;5.75;1.60;;;;;;;;;;5123880;28;20051;-87
2022/08/03 11:14:10;;;;;;;4.32;1.60;;;;;;;;;;5123645;28;20027;-86
2022/08/03 11:16:37;;;;;;;4.07;1.60;;;;;;;;;;5123739;28;20323;-84
2022/08/03 11:19:08;;;;;;;4.45;1.80;;;;;;;;;;5123510;28;20031;-82
2022/08/03 11:21:48;;;;;;;3.33;1.60;;;;;;;;;;5122903;28;20039;-84
2022/08/03 11:24:36;;;;;;;4.20;1.65;;;;;;;;;;5114091;28;20023;-85
2022/08/03 11:27:25;;;;;;;3.70;1.80;;;;;;;;;;5123760;28;20023;-87
2022/08/03 11:30:07;;;;;;;9.10;1.80;;;;;;;;;;5122621;28;20099;-88
2022/08/03 11:32:49;;;;;;;5.78;1.80;;;;;;;;;;5112433;28;20092;-85
2022/08/03 11:35:26;;;;;;;3.35;1.55;;;;;;;;;;5116167;28;20030;-83
2022/08/03 11:37:58;;;;;;;5.45;1.70;;;;;;;;;;5122926;28;20024;-85
2022/08/03 11:40:45;;;;;;;4.90;1.60;;;;;;;;;;5122808;28;20091;-86
2022/08/03 11:43:28;;;;;;;5.95;1.50;;;;;;;;;;5115136;28;20355;-85
2022/08/03 11:46:07;;;;;;;3.22;1.50;;;;;;;;;;5113527;28;20483;-84
2022/08/03 11:48:34;;;;;;;3.10;1.40;;;;;;;;;;5122802;28;20493;-86
2022/08/03 11:51:00;;;;;;;5.55;1.60;;;;;;;;;;5122687;28;20095;-89
2022/08/03 11:53:26;;;;;;;4.75;1.75;;;;;;;;;;5122635;28;20031;-85
2022/08/03 11:55:52;;;;;;;3.45;1.38;;;;;;;;;;5122467;28;20430;-81
2022/08/03 11:58:22;;;;;;;3.67;1.70;;;;;;;;;;5122563;28;20031;-84
2022/08/03 12:00:49;;;;;;;7.13;1.50;;;;;;;;;;5115978;28;20027;-86
2022/08/03 12:03:16;;;;;;;4.65;1.50;;;;;;;;;;5122584;28;20231;-82
2022/08/03 12:05:46;;;;;;;4.68;1.83;;;;;;;;;;5115750;28;20027;-82
2022/08/03 12:08:14;;;;;;;5.03;1.60;;;;;;;;;;5122382;28;20022;-85
2022/08/03 12:10:45;;;;;;;3.03;1.63;;;;;;;;;;5097470;28;20027;-83
2022/08/03 12:13:10;;;;;;;4.20;1.70;;;;;;;;;;5121493;28;20015;-81
2022/08/03 12:15:37;;;;;;;3.65;1.70;;;;;;;;;;5122629;28;20019;-84
2022/08/03 12:18:11;;;;;;;4.05;1.70;;;;;;;;;;5119923;28;20027;-82
2022/08/03 12:20:37;;;;;;;;;;;;;;;;;;5122622;28;20019;-83
2022/08/03 12:23:04;;;;;;;5.28;1.70;;;;;;;;;;5122317;28;19907;-85
2022/08/03 12:25:30;;;;;;;9.20;1.52;;;;;;;;;;5121955;28;20024;-84
2022/08/03 12:28:16;;;;;;;4.13;1.70;;;;;;;;;;5121837;28;20324;-83
2022/08/03 12:30:42;;;;;;;4.47;1.60;;;;;;;;;;5122085;28;20104;-84
2022/08/03 12:33:18;;;;;;;3.95;1.60;;;;;;;;;;5115855;28;20023;-84
2022/08/03 12:35:44;;;;;;;4.13;1.60;;;;;;;;;;5109593;28;20030;-85
2022/08/03 12:38:11;;;;;;;4.28;1.80;;;;;;;;;;5122103;28;20043;-85
2022/08/03 12:40:37;;;;;;;5.43;1.70;;;;;;;;;;5121625;28;20031;-86
2022/08/03 12:43:11;;;;;;;7.18;1.52;;;;;;;;;;5122118;28;20047;-83
2022/08/03 12:45:36;;;;;;;8.23;1.52;;;;;;;;;;5119925;28;20319;-85
2022/08/03 12:48:02;;;;;;;6.10;1.90;;;;;;;;;;5121760;28;20019;-84
2022/08/03 12:50:31;;;;;;;5.63;1.73;;;;;;;;;;5117019;28;20068;-80
2022/08/03 12:52:57;;;;;;;5.07;1.67;;;;;;;;;;5110446;28;20099;-84
2022/08/03 12:55:24;;;;;;;5.10;1.80;;;;;;;;;;5115668;28;20024;-84
2022/08/03 12:57:49;;;;;;;7.63;1.67;;;;;;;;;;5121451;28;20027;-82
2022/08/03 13:00:18;;;;;;;4.65;1.50;;;;;;;;;;5114793;28;20318;-85
2022/08/03 13:02:44;;;;;;;6.05;1.48;;;;;;;;;;5121466;28;20016;-83
2022/08/03 13:05:14;;;;;;;5.32;1.60;;;;;;;;;;5114936;28;20034;-82
2022/08/03 13:07:46;;;;;;;2.92;1.38;;;;;;;;;;5121524;28;20047;-82
2022/08/03 13:10:25;;;;;;;5.50;1.50;;;;;;;;;;5101576;28;20020;-81
2022/08/03 13:12:52;;;;;;;3.13;1.55;;;;;;;;;;5120937;28;20027;-84
2022/08/03 13:15:17;;;;;;;4.10;1.67;;;;;;;;;;5121478;28;20012;-79
2022/08/03 13:17:43;;;;;;;3.85;1.52;;;;;;;;;;5121285;28;20076;-83
2022/08/03 13:20:09;;;;;;;4.47;1.40;;;;;;;;;;5120859;28;20080;-83
2022/08/03 13:22:35;;;;;;;6.82;1.80;;;;;;;;;;5121018;28;20015;-83
2022/08/03 13:25:01;;;;;;;6.57;1.50;;;;;;;;;;5117725;28;20027;-84
2022/08/03 13:27:28;;;;;;;3.45;1.52;;;;;;;;;;5114761;28;20034;-84
2022/08/03 13:29:54;;;;;;;4.97;1.42;;;;;;;;;;5115967;28;20028;-82
2022/08/03 13:32:20;;;;;;;5.85;1.52;;;;;;;;;;5123945;28;20296;-82
2022/08/03 13:34:45;;;;;;;5.60;1.48;;;;;;;;;;5120837;28;20037;-81
2022/08/03 13:37:11;;;;;;;4.82;1.50;;;;;;;;;;5120967;28;20204;-82
2022/08/03 13:39:38;;;;;;;3.20;1.40;;;;;;;;;;5120944;28;20104;-83
2022/08/03 13:42:04;;;;;;;5.28;1.40;;;;;;;;;;5120852;28;20020;-83
2022/08/03 13:44:33;;;;;;;5.82;1.75;;;;;;;;;;5120756;28;20026;-84
2022/08/03 13:46:59;;;;;;;7.43;1.70;;;;;;;;;;5121376;28;20028;-82
2022/08/03 13:49:25;;;;;;;5.80;1.60;;;;;;;;;;5120662;28;20050;-83
2022/08/03 13:51:51;;;;;;;3.78;1.40;;;;;;;;;;5121152;28;20088;-80
2022/08/03 13:54:16;;;;;;;3.42;1.60;;;;;;;;;;5088453;28;20091;-81
2022/08/03 13:56:47;;;;;;;7.18;1.50;;;;;;;;;;5118168;28;20027;-84
2022/08/03 13:59:13;;;;;;;4.90;1.67;;;;;;;;;;5120726;28;20027;-86
2022/08/03 14:01:38;;;;;;;3.28;1.55;;;;;;;;;;5121062;28;20099;-82
2022/08/03 14:04:03;;;;;;;2.80;1.50;;;;;;;;;;5120404;28;20024;-86
2022/08/03 14:06:30;;;;;;;2.80;1.45;;;;;;;;;;5114303;28;20023;-84
2022/08/03 14:08:55;;;;;;;5.13;1.50;;;;;;;;;;5120825;28;20087;-82
2022/08/03 14:11:21;;;;;;;3.45;1.60;;;;;;;;;;5113872;28;20686;-86
2022/08/03 14:13:46;;;;;;;3.72;1.60;;;;;;;;;;5102562;28;20024;-83
2022/08/03 14:16:11;;;;;;;8.65;1.60;;;;;;;;;;5120935;28;20063;-82
2022/08/03 14:18:37;;;;;;;5.47;1.65;;;;;;;;;;5120489;28;20028;-86
2022/08/03 14:21:04;;;;;;;6.20;1.40;;;;;;;;;;5110221;28;20024;-83
2022/08/03 14:23:29;;;;;;;4.03;1.60;;;;;;;;;;5120960;28;20387;-84
2022/08/03 14:25:55;;;;;;;4.85;1.50;;;;;;;;;;5116417;28;20034;-83
2022/08/03 14:28:21;;;;;;;5.63;1.50;;;;;;;;;;5120994;28;20020;-84
2022/08/03 14:30:47;;;;;;;3.22;1.40;;;;;;;;;;5120610;28;20027;-84
2022/08/03 14:33:13;;;;;;;6.55;1.73;;;;;;;;;;5114370;28;20094;-85
2022/08/03 14:35:38;;;;;;;7.28;1.70;;;;;;;;;;5120744;28;20023;-83
2022/08/03 14:38:04;;;;;;;6.53;1.60;;;;;;;;;;5123667;28;20148;-84
2022/08/03 14:40:30;;;;;;;6.72;1.60;;;;;;;;;;5124168;28;20243;-85
2022/08/03 14:42:56;;;;;;;4.75;1.40;;;;;;;;;;5124071;28;20201;-83
2022/08/03 14:45:21;;;;;;;9.50;1.50;;;;;;;;;;5124159;28;20053;-84
2022/08/03 14:47:46;;;;;;;4.15;1.50;;;;;;;;;;5124132;28;20023;-82
2022/08/03 14:50:12;;;;;;;5.00;1.50;;;;;;;;;;5123849;28;20027;-84
2022/08/03 14:52:37;;;;;;;4.35;1.40;;;;;;;;;;5124397;28;20027;-85
2022/08/03 14:55:02;;;;;;;5.93;1.50;;;;;;;;;;5124061;28;20019;-87
2022/08/03 14:57:28;;;;;;;4.00;1.35;;;;;;;;;;5124138;28;20024;-85
2022/08/03 14:59:54;;;;;;;7.68;1.65;;;;;;;;;;5124165;28;20063;-85
2022/08/03 15:02:20;;;;;;;9.57;1.70;;;;;;;;;;5124122;28;20128;-85